createdAt,value
2023-05-09T00:02:19.049Z,985.60
2023-05-09T00:14:19.420Z,985.48
2023-05-09T00:26:19.870Z,985.41
2023-05-09T00:38:20.327Z,985.26
2023-05-09T00:50:20.783Z,985.31
2023-05-09T01:02:21.285Z,985.26
2023-05-09T01:14:21.701Z,985.26
2023-05-09T01:26:22.150Z,985.23
2023-05-09T01:38:22.579Z,985.30
2023-05-09T01:50:23.078Z,985.20
2023-05-09T02:02:23.504Z,985.24
2023-05-09T02:14:23.977Z,985.41
2023-05-09T02:26:24.411Z,985.51
2023-05-09T02:38:24.865Z,985.55
2023-05-09T02:50:25.321Z,985.44
2023-05-09T03:02:25.793Z,985.04
2023-05-09T03:14:26.222Z,985.25
2023-05-09T03:26:26.686Z,985.00
2023-05-09T03:38:27.113Z,985.04
2023-05-09T03:50:27.568Z,985.15
2023-05-09T04:02:28.122Z,985.20
2023-05-09T04:14:28.518Z,985.13
2023-05-09T04:26:28.918Z,985.25
2023-05-09T04:38:29.382Z,985.32
2023-05-09T04:50:29.852Z,985.41
2023-05-09T05:02:30.395Z,985.28
2023-05-09T05:14:30.746Z,985.27
2023-05-09T05:26:31.191Z,985.25
2023-05-09T05:38:31.629Z,985.20
2023-05-09T05:50:32.096Z,985.09
2023-05-09T06:02:32.668Z,985.16
2023-05-09T06:14:33.027Z,985.04
2023-05-09T06:26:33.425Z,984.96
2023-05-09T06:38:33.912Z,984.94
2023-05-09T06:50:34.352Z,984.87
2023-05-09T07:02:34.841Z,984.75
2023-05-09T07:14:35.266Z,984.57
2023-05-09T07:26:35.780Z,984.59
2023-05-09T07:38:36.220Z,984.52
2023-05-09T07:50:36.627Z,984.26
2023-05-09T08:02:37.166Z,984.20
2023-05-09T08:14:37.565Z,984.21
2023-05-09T08:26:37.987Z,984.08
2023-05-09T08:38:38.447Z,984.13
2023-05-09T08:50:38.933Z,984.12
2023-05-09T09:02:39.435Z,984.15
2023-05-09T09:14:39.810Z,984.06
2023-05-09T09:26:40.273Z,984.02
2023-05-09T09:38:40.720Z,984.04
2023-05-09T09:50:41.224Z,983.81
2023-05-09T10:02:41.715Z,983.73
2023-05-09T10:14:42.096Z,983.68
2023-05-09T10:26:42.564Z,983.75
2023-05-09T10:38:42.987Z,983.68
2023-05-09T10:50:43.445Z,983.47
2023-05-09T11:02:43.946Z,983.40
2023-05-09T11:14:44.387Z,983.33
2023-05-09T11:26:44.852Z,983.34
2023-05-09T11:38:45.287Z,983.12
2023-05-09T11:50:45.715Z,982.96
2023-05-09T12:02:46.233Z,983.00
2023-05-09T12:14:46.658Z,982.87
2023-05-09T12:26:47.096Z,982.70
2023-05-09T12:38:47.513Z,982.65
2023-05-09T12:50:47.982Z,982.41
2023-05-09T13:02:48.560Z,982.35
2023-05-09T13:14:48.918Z,982.20
2023-05-09T13:26:49.345Z,982.11
2023-05-09T13:38:49.804Z,981.96
2023-05-09T14:02:50.724Z,981.69
2023-05-09T14:14:51.173Z,981.56
2023-05-09T14:26:51.640Z,981.54
2023-05-09T14:38:52.102Z,981.46
2023-05-09T14:50:52.524Z,981.29
2023-05-09T15:02:53.064Z,981.18
2023-05-09T15:14:53.437Z,981.06
2023-05-09T15:26:53.913Z,981.03
2023-05-09T15:38:54.360Z,980.94
2023-05-09T15:50:54.830Z,980.83
2023-05-09T16:02:55.389Z,980.63
2023-05-09T16:14:55.756Z,980.58
2023-05-09T16:26:56.194Z,980.51
2023-05-09T16:38:56.634Z,980.33
2023-05-09T16:50:57.073Z,980.24
2023-05-09T17:02:57.588Z,980.16
2023-05-09T17:14:58.005Z,980.10
2023-05-09T17:26:58.444Z,980.13
2023-05-09T17:38:58.881Z,980.09
2023-05-09T17:50:59.359Z,980.06
2023-05-09T18:02:59.868Z,980.01
2023-05-09T18:15:00.431Z,980.06
2023-05-09T18:27:00.728Z,979.95
2023-05-09T18:39:01.261Z,980.14
2023-05-09T18:51:01.639Z,980.08
2023-05-09T19:03:02.125Z,980.15
2023-05-09T19:15:02.524Z,980.11
2023-05-09T19:27:03.020Z,980.12
2023-05-09T19:39:03.474Z,980.08
2023-05-09T19:51:03.889Z,980.02
2023-05-09T20:03:04.492Z,979.98
2023-05-09T20:15:04.799Z,979.82
2023-05-09T20:27:05.238Z,979.83
2023-05-09T20:39:05.692Z,979.75
2023-05-09T20:51:06.162Z,979.63
2023-05-09T21:03:06.782Z,979.41
2023-05-09T21:15:07.100Z,979.34
2023-05-09T21:27:07.533Z,979.37
2023-05-09T21:39:07.995Z,979.25
2023-05-09T21:51:08.443Z,979.24
2023-05-09T22:03:08.988Z,979.29
2023-05-09T22:15:09.360Z,979.19
2023-05-09T22:27:09.803Z,979.13
2023-05-09T22:39:10.262Z,979.09
2023-05-09T22:51:10.701Z,979.00
2023-05-09T23:03:11.197Z,978.89
2023-05-09T23:15:11.606Z,978.75
2023-05-09T23:27:12.056Z,978.71
2023-05-09T23:39:12.500Z,978.53
2023-05-09T23:51:12.961Z,978.34
